sensor_id;sensor_type;location;lat;lon;timestamp;P1;durP1;ratioP1;P2;durP2;ratioP2
6665;SDS011;3369;49.906;8.598;2023-02-10T00:01:27;38.63;;;22.13;;
6665;SDS011;3369;49.906;8.598;2023-02-10T00:03:53;37.83;;;21.53;;
6665;SDS011;3369;49.906;8.598;2023-02-10T00:06:20;36.47;;;20.97;;
6665;SDS011;3369;49.906;8.598;2023-02-10T00:08:49;33.07;;;20.13;;
6665;SDS011;3369;49.906;8.598;2023-02-10T00:11:16;34.27;;;19.30;;
6665;SDS011;3369;49.906;8.598;2023-02-10T00:13:43;30.73;;;19.70;;
6665;SDS011;3369;49.906;8.598;2023-02-10T00:16:10;31.90;;;19.57;;
6665;SDS011;3369;49.906;8.598;2023-02-10T00:18:38;31.63;;;19.07;;
6665;SDS011;3369;49.906;8.598;2023-02-10T00:23:34;32.73;;;20.53;;
6665;SDS011;3369;49.906;8.598;2023-02-10T00:26:03;35.07;;;20.20;;
6665;SDS011;3369;49.906;8.598;2023-02-10T00:28:30;34.20;;;21.20;;
6665;SDS011;3369;49.906;8.598;2023-02-10T00:30:57;37.03;;;21.23;;
6665;SDS011;3369;49.906;8.598;2023-02-10T00:33:23;37.10;;;21.83;;
6665;SDS011;3369;49.906;8.598;2023-02-10T00:35:48;35.07;;;20.60;;
6665;SDS011;3369;49.906;8.598;2023-02-10T00:38:14;34.47;;;22.03;;
6665;SDS011;3369;49.906;8.598;2023-02-10T00:40:39;35.07;;;21.40;;
6665;SDS011;3369;49.906;8.598;2023-02-10T00:43:05;33.50;;;22.53;;
6665;SDS011;3369;49.906;8.598;2023-02-10T00:45:31;40.87;;;22.13;;
6665;SDS011;3369;49.906;8.598;2023-02-10T00:47:56;35.33;;;21.63;;
6665;SDS011;3369;49.906;8.598;2023-02-10T00:50:22;35.20;;;21.33;;
6665;SDS011;3369;49.906;8.598;2023-02-10T00:52:47;36.37;;;21.70;;
6665;SDS011;3369;49.906;8.598;2023-02-10T00:55:13;36.23;;;20.50;;
6665;SDS011;3369;49.906;8.598;2023-02-10T00:57:39;36.03;;;20.97;;
6665;SDS011;3369;49.906;8.598;2023-02-10T01:00:04;37.67;;;21.83;;
6665;SDS011;3369;49.906;8.598;2023-02-10T01:02:31;31.27;;;19.63;;
6665;SDS011;3369;49.906;8.598;2023-02-10T01:04:56;35.60;;;19.87;;
6665;SDS011;3369;49.906;8.598;2023-02-10T01:07:23;34.03;;;20.63;;
6665;SDS011;3369;49.906;8.598;2023-02-10T01:09:49;35.60;;;21.03;;
6665;SDS011;3369;49.906;8.598;2023-02-10T01:12:15;31.30;;;21.17;;
6665;SDS011;3369;49.906;8.598;2023-02-10T01:14:40;31.80;;;19.77;;
6665;SDS011;3369;49.906;8.598;2023-02-10T01:17:06;31.97;;;19.53;;
6665;SDS011;3369;49.906;8.598;2023-02-10T01:19:31;32.87;;;20.43;;
6665;SDS011;3369;49.906;8.598;2023-02-10T01:21:57;34.67;;;20.83;;
6665;SDS011;3369;49.906;8.598;2023-02-10T01:24:23;30.60;;;18.23;;
6665;SDS011;3369;49.906;8.598;2023-02-10T01:26:48;33.40;;;19.80;;
6665;SDS011;3369;49.906;8.598;2023-02-10T01:29:14;35.10;;;20.60;;
6665;SDS011;3369;49.906;8.598;2023-02-10T01:31:40;34.87;;;20.33;;
6665;SDS011;3369;49.906;8.598;2023-02-10T01:34:06;32.43;;;20.37;;
6665;SDS011;3369;49.906;8.598;2023-02-10T01:36:31;32.30;;;19.67;;
6665;SDS011;3369;49.906;8.598;2023-02-10T01:38:57;29.73;;;18.57;;
6665;SDS011;3369;49.906;8.598;2023-02-10T01:41:23;30.20;;;17.83;;
6665;SDS011;3369;49.906;8.598;2023-02-10T01:43:59;37.20;;;19.83;;
6665;SDS011;3369;49.906;8.598;2023-02-10T01:46:29;35.93;;;20.43;;
6665;SDS011;3369;49.906;8.598;2023-02-10T01:49:00;29.40;;;18.77;;
6665;SDS011;3369;49.906;8.598;2023-02-10T01:54:28;32.73;;;19.07;;
6665;SDS011;3369;49.906;8.598;2023-02-10T01:56:59;33.37;;;19.70;;
6665;SDS011;3369;49.906;8.598;2023-02-10T01:59:30;34.17;;;19.53;;
6665;SDS011;3369;49.906;8.598;2023-02-10T02:01:57;37.03;;;21.40;;
6665;SDS011;3369;49.906;8.598;2023-02-10T02:04:26;31.47;;;19.50;;
6665;SDS011;3369;49.906;8.598;2023-02-10T02:06:52;32.80;;;18.17;;
6665;SDS011;3369;49.906;8.598;2023-02-10T02:09:17;32.13;;;19.30;;
6665;SDS011;3369;49.906;8.598;2023-02-10T02:11:47;30.57;;;19.43;;
6665;SDS011;3369;49.906;8.598;2023-02-10T02:14:17;35.40;;;20.10;;
6665;SDS011;3369;49.906;8.598;2023-02-10T02:39:47;22.80;;;13.83;;
6665;SDS011;3369;49.906;8.598;2023-02-10T02:50:26;32.30;;;18.97;;
6665;SDS011;3369;49.906;8.598;2023-02-10T02:53:57;32.57;;;19.33;;
6665;SDS011;3369;49.906;8.598;2023-02-10T02:56:20;34.87;;;21.00;;
6665;SDS011;3369;49.906;8.598;2023-02-10T02:59:04;33.83;;;20.13;;
6665;SDS011;3369;49.906;8.598;2023-02-10T03:01:57;35.63;;;18.90;;
6665;SDS011;3369;49.906;8.598;2023-02-10T03:04:27;35.20;;;19.37;;
6665;SDS011;3369;49.906;8.598;2023-02-10T03:06:55;30.87;;;20.10;;
6665;SDS011;3369;49.906;8.598;2023-02-10T03:09:21;33.03;;;18.77;;
6665;SDS011;3369;49.906;8.598;2023-02-10T03:11:47;37.73;;;21.30;;
6665;SDS011;3369;49.906;8.598;2023-02-10T03:14:12;31.30;;;20.33;;
6665;SDS011;3369;49.906;8.598;2023-02-10T03:16:38;29.53;;;18.83;;
6665;SDS011;3369;49.906;8.598;2023-02-10T03:19:03;32.67;;;20.53;;
6665;SDS011;3369;49.906;8.598;2023-02-10T03:21:29;33.33;;;19.33;;
6665;SDS011;3369;49.906;8.598;2023-02-10T03:23:55;29.73;;;19.70;;
6665;SDS011;3369;49.906;8.598;2023-02-10T03:26:20;28.53;;;18.33;;
6665;SDS011;3369;49.906;8.598;2023-02-10T03:28:46;32.03;;;19.03;;
6665;SDS011;3369;49.906;8.598;2023-02-10T03:31:12;34.17;;;19.57;;
6665;SDS011;3369;49.906;8.598;2023-02-10T03:33:37;33.67;;;18.60;;
6665;SDS011;3369;49.906;8.598;2023-02-10T03:36:03;34.50;;;20.07;;
6665;SDS011;3369;49.906;8.598;2023-02-10T03:38:29;33.57;;;19.40;;
6665;SDS011;3369;49.906;8.598;2023-02-10T03:40:55;33.87;;;20.30;;
6665;SDS011;3369;49.906;8.598;2023-02-10T03:43:21;33.70;;;19.73;;
6665;SDS011;3369;49.906;8.598;2023-02-10T03:45:47;36.47;;;20.73;;
6665;SDS011;3369;49.906;8.598;2023-02-10T03:48:13;34.07;;;20.63;;
6665;SDS011;3369;49.906;8.598;2023-02-10T03:50:40;32.67;;;21.33;;
6665;SDS011;3369;49.906;8.598;2023-02-10T03:53:06;34.77;;;20.33;;
6665;SDS011;3369;49.906;8.598;2023-02-10T03:55:32;33.57;;;20.13;;
6665;SDS011;3369;49.906;8.598;2023-02-10T03:57:59;35.03;;;20.77;;
6665;SDS011;3369;49.906;8.598;2023-02-10T04:00:26;33.47;;;19.83;;
6665;SDS011;3369;49.906;8.598;2023-02-10T04:02:52;33.20;;;19.97;;
6665;SDS011;3369;49.906;8.598;2023-02-10T04:05:18;30.97;;;19.10;;
6665;SDS011;3369;49.906;8.598;2023-02-10T04:07:44;32.60;;;20.17;;
6665;SDS011;3369;49.906;8.598;2023-02-10T04:10:09;32.07;;;18.57;;
6665;SDS011;3369;49.906;8.598;2023-02-10T04:12:35;31.13;;;19.40;;
6665;SDS011;3369;49.906;8.598;2023-02-10T04:15:01;30.60;;;18.10;;
6665;SDS011;3369;49.906;8.598;2023-02-10T04:17:27;29.33;;;18.77;;
6665;SDS011;3369;49.906;8.598;2023-02-10T04:19:53;30.83;;;18.40;;
6665;SDS011;3369;49.906;8.598;2023-02-10T04:22:18;32.07;;;18.90;;
6665;SDS011;3369;49.906;8.598;2023-02-10T04:24:44;29.27;;;19.00;;
6665;SDS011;3369;49.906;8.598;2023-02-10T04:27:10;29.87;;;18.43;;
6665;SDS011;3369;49.906;8.598;2023-02-10T04:29:35;34.37;;;19.43;;
6665;SDS011;3369;49.906;8.598;2023-02-10T04:32:04;33.50;;;19.73;;
6665;SDS011;3369;49.906;8.598;2023-02-10T04:34:31;30.23;;;19.43;;
6665;SDS011;3369;49.906;8.598;2023-02-10T04:36:56;36.27;;;20.17;;
6665;SDS011;3369;49.906;8.598;2023-02-10T04:39:22;28.27;;;18.47;;
6665;SDS011;3369;49.906;8.598;2023-02-10T04:41:48;33.53;;;19.47;;
6665;SDS011;3369;49.906;8.598;2023-02-10T04:44:13;34.27;;;20.10;;
6665;SDS011;3369;49.906;8.598;2023-02-10T04:46:39;37.63;;;20.47;;
6665;SDS011;3369;49.906;8.598;2023-02-10T04:49:04;36.07;;;20.73;;
6665;SDS011;3369;49.906;8.598;2023-02-10T04:51:30;33.77;;;21.83;;
6665;SDS011;3369;49.906;8.598;2023-02-10T04:53:56;31.37;;;20.10;;
6665;SDS011;3369;49.906;8.598;2023-02-10T04:56:21;34.60;;;20.73;;
6665;SDS011;3369;49.906;8.598;2023-02-10T04:58:47;33.23;;;21.13;;
6665;SDS011;3369;49.906;8.598;2023-02-10T05:01:12;37.37;;;21.17;;
6665;SDS011;3369;49.906;8.598;2023-02-10T05:03:38;36.90;;;21.03;;
6665;SDS011;3369;49.906;8.598;2023-02-10T05:06:14;33.60;;;19.93;;
6665;SDS011;3369;49.906;8.598;2023-02-10T05:08:40;30.70;;;19.43;;
6665;SDS011;3369;49.906;8.598;2023-02-10T05:11:10;27.07;;;18.37;;
6665;SDS011;3369;49.906;8.598;2023-02-10T05:13:37;36.27;;;21.20;;
6665;SDS011;3369;49.906;8.598;2023-02-10T05:16:04;33.13;;;21.10;;
6665;SDS011;3369;49.906;8.598;2023-02-10T05:18:30;38.27;;;22.00;;
6665;SDS011;3369;49.906;8.598;2023-02-10T05:20:57;33.53;;;20.83;;
6665;SDS011;3369;49.906;8.598;2023-02-10T05:23:23;32.00;;;19.73;;
6665;SDS011;3369;49.906;8.598;2023-02-10T05:25:49;32.40;;;19.90;;
6665;SDS011;3369;49.906;8.598;2023-02-10T05:28:15;30.77;;;19.27;;
6665;SDS011;3369;49.906;8.598;2023-02-10T05:30:40;33.57;;;21.03;;
6665;SDS011;3369;49.906;8.598;2023-02-10T05:33:06;34.87;;;22.17;;
6665;SDS011;3369;49.906;8.598;2023-02-10T05:35:31;35.83;;;21.83;;
6665;SDS011;3369;49.906;8.598;2023-02-10T05:37:57;34.13;;;20.93;;
6665;SDS011;3369;49.906;8.598;2023-02-10T05:40:22;33.50;;;20.90;;
6665;SDS011;3369;49.906;8.598;2023-02-10T05:42:49;34.57;;;20.37;;
6665;SDS011;3369;49.906;8.598;2023-02-10T05:45:15;35.23;;;21.03;;
6665;SDS011;3369;49.906;8.598;2023-02-10T05:47:41;32.73;;;20.40;;
6665;SDS011;3369;49.906;8.598;2023-02-10T05:50:06;36.03;;;21.97;;
6665;SDS011;3369;49.906;8.598;2023-02-10T05:52:32;33.47;;;21.53;;
6665;SDS011;3369;49.906;8.598;2023-02-10T05:54:59;33.47;;;20.93;;
6665;SDS011;3369;49.906;8.598;2023-02-10T05:57:24;36.97;;;21.40;;
6665;SDS011;3369;49.906;8.598;2023-02-10T05:59:50;38.47;;;22.93;;
6665;SDS011;3369;49.906;8.598;2023-02-10T06:02:15;35.10;;;21.73;;
6665;SDS011;3369;49.906;8.598;2023-02-10T06:04:41;36.70;;;21.83;;
6665;SDS011;3369;49.906;8.598;2023-02-10T06:07:07;32.97;;;21.57;;
6665;SDS011;3369;49.906;8.598;2023-02-10T06:09:32;36.70;;;21.40;;
6665;SDS011;3369;49.906;8.598;2023-02-10T06:11:58;36.73;;;21.57;;
6665;SDS011;3369;49.906;8.598;2023-02-10T06:14:23;37.33;;;21.90;;
6665;SDS011;3369;49.906;8.598;2023-02-10T06:16:49;34.87;;;22.57;;
6665;SDS011;3369;49.906;8.598;2023-02-10T06:19:15;38.07;;;21.73;;
6665;SDS011;3369;49.906;8.598;2023-02-10T06:21:41;38.63;;;22.73;;
6665;SDS011;3369;49.906;8.598;2023-02-10T06:24:06;35.27;;;21.20;;
6665;SDS011;3369;49.906;8.598;2023-02-10T06:26:32;35.03;;;22.57;;
6665;SDS011;3369;49.906;8.598;2023-02-10T06:28:57;36.97;;;22.83;;
6665;SDS011;3369;49.906;8.598;2023-02-10T06:31:23;38.73;;;22.10;;
6665;SDS011;3369;49.906;8.598;2023-02-10T06:33:50;34.87;;;21.83;;
6665;SDS011;3369;49.906;8.598;2023-02-10T06:36:15;37.03;;;23.00;;
6665;SDS011;3369;49.906;8.598;2023-02-10T06:38:41;39.57;;;23.90;;
6665;SDS011;3369;49.906;8.598;2023-02-10T06:41:07;37.90;;;22.17;;
6665;SDS011;3369;49.906;8.598;2023-02-10T06:43:33;41.67;;;23.17;;
6665;SDS011;3369;49.906;8.598;2023-02-10T06:45:58;39.97;;;22.83;;
6665;SDS011;3369;49.906;8.598;2023-02-10T06:48:24;38.27;;;23.07;;
6665;SDS011;3369;49.906;8.598;2023-02-10T06:50:51;33.77;;;22.50;;
6665;SDS011;3369;49.906;8.598;2023-02-10T06:53:17;39.80;;;23.40;;
6665;SDS011;3369;49.906;8.598;2023-02-10T06:55:43;38.37;;;21.33;;
6665;SDS011;3369;49.906;8.598;2023-02-10T06:58:09;38.50;;;22.30;;
6665;SDS011;3369;49.906;8.598;2023-02-10T07:00:35;34.43;;;20.93;;
6665;SDS011;3369;49.906;8.598;2023-02-10T07:03:01;35.00;;;22.17;;
6665;SDS011;3369;49.906;8.598;2023-02-10T07:05:27;35.17;;;22.40;;
6665;SDS011;3369;49.906;8.598;2023-02-10T07:07:52;39.67;;;22.37;;
6665;SDS011;3369;49.906;8.598;2023-02-10T07:10:24;36.80;;;22.30;;
6665;SDS011;3369;49.906;8.598;2023-02-10T07:12:50;38.37;;;23.23;;
6665;SDS011;3369;49.906;8.598;2023-02-10T07:15:16;36.17;;;22.60;;
6665;SDS011;3369;49.906;8.598;2023-02-10T07:17:43;38.50;;;22.90;;
6665;SDS011;3369;49.906;8.598;2023-02-10T07:20:10;36.80;;;22.53;;
6665;SDS011;3369;49.906;8.598;2023-02-10T07:22:36;37.07;;;23.17;;
6665;SDS011;3369;49.906;8.598;2023-02-10T07:25:02;41.83;;;24.00;;
6665;SDS011;3369;49.906;8.598;2023-02-10T07:27:28;40.03;;;24.40;;
6665;SDS011;3369;49.906;8.598;2023-02-10T07:29:53;44.67;;;23.83;;
6665;SDS011;3369;49.906;8.598;2023-02-10T07:32:19;42.57;;;23.47;;
6665;SDS011;3369;49.906;8.598;2023-02-10T07:34:44;37.20;;;23.63;;
6665;SDS011;3369;49.906;8.598;2023-02-10T07:37:11;40.07;;;23.10;;
6665;SDS011;3369;49.906;8.598;2023-02-10T07:39:36;40.70;;;23.70;;
6665;SDS011;3369;49.906;8.598;2023-02-10T07:42:02;37.93;;;24.03;;
6665;SDS011;3369;49.906;8.598;2023-02-10T07:44:28;36.67;;;21.30;;
6665;SDS011;3369;49.906;8.598;2023-02-10T07:46:54;34.90;;;22.33;;
6665;SDS011;3369;49.906;8.598;2023-02-10T07:49:19;36.87;;;23.10;;
6665;SDS011;3369;49.906;8.598;2023-02-10T07:51:45;37.43;;;23.37;;
6665;SDS011;3369;49.906;8.598;2023-02-10T07:54:11;37.13;;;22.70;;
6665;SDS011;3369;49.906;8.598;2023-02-10T07:56:37;35.97;;;21.33;;
6665;SDS011;3369;49.906;8.598;2023-02-10T07:59:02;37.70;;;22.43;;
6665;SDS011;3369;49.906;8.598;2023-02-10T08:01:28;38.47;;;24.07;;
6665;SDS011;3369;49.906;8.598;2023-02-10T08:03:54;34.17;;;22.20;;
6665;SDS011;3369;49.906;8.598;2023-02-10T08:06:22;38.10;;;23.13;;
6665;SDS011;3369;49.906;8.598;2023-02-10T08:08:50;33.73;;;21.50;;
6665;SDS011;3369;49.906;8.598;2023-02-10T08:11:16;37.13;;;22.53;;
6665;SDS011;3369;49.906;8.598;2023-02-10T08:13:42;36.93;;;22.60;;
6665;SDS011;3369;49.906;8.598;2023-02-10T08:16:08;38.47;;;23.87;;
6665;SDS011;3369;49.906;8.598;2023-02-10T08:18:36;38.57;;;24.07;;
6665;SDS011;3369;49.906;8.598;2023-02-10T08:21:03;36.30;;;22.47;;
6665;SDS011;3369;49.906;8.598;2023-02-10T08:23:29;43.20;;;22.97;;
6665;SDS011;3369;49.906;8.598;2023-02-10T08:25:54;36.90;;;23.80;;
6665;SDS011;3369;49.906;8.598;2023-02-10T08:28:20;43.27;;;24.20;;
6665;SDS011;3369;49.906;8.598;2023-02-10T08:30:46;44.60;;;24.93;;
6665;SDS011;3369;49.906;8.598;2023-02-10T08:33:11;41.07;;;24.17;;
6665;SDS011;3369;49.906;8.598;2023-02-10T08:35:38;38.30;;;22.60;;
6665;SDS011;3369;49.906;8.598;2023-02-10T08:38:04;38.90;;;23.93;;
6665;SDS011;3369;49.906;8.598;2023-02-10T08:40:31;39.63;;;24.03;;
6665;SDS011;3369;49.906;8.598;2023-02-10T08:42:57;39.17;;;23.83;;
6665;SDS011;3369;49.906;8.598;2023-02-10T08:45:23;39.30;;;24.37;;
6665;SDS011;3369;49.906;8.598;2023-02-10T08:47:49;35.60;;;22.27;;
6665;SDS011;3369;49.906;8.598;2023-02-10T08:50:15;34.23;;;22.03;;
6665;SDS011;3369;49.906;8.598;2023-02-10T08:52:41;40.13;;;23.90;;
6665;SDS011;3369;49.906;8.598;2023-02-10T08:55:06;37.10;;;21.73;;
6665;SDS011;3369;49.906;8.598;2023-02-10T08:57:33;36.87;;;22.40;;
6665;SDS011;3369;49.906;8.598;2023-02-10T08:59:59;33.63;;;22.20;;
6665;SDS011;3369;49.906;8.598;2023-02-10T09:02:25;36.83;;;23.07;;
6665;SDS011;3369;49.906;8.598;2023-02-10T09:04:51;39.13;;;23.50;;
6665;SDS011;3369;49.906;8.598;2023-02-10T09:07:17;37.40;;;23.70;;
6665;SDS011;3369;49.906;8.598;2023-02-10T09:09:43;37.07;;;22.50;;
6665;SDS011;3369;49.906;8.598;2023-02-10T09:12:09;37.30;;;22.07;;
6665;SDS011;3369;49.906;8.598;2023-02-10T09:14:36;34.80;;;22.33;;
6665;SDS011;3369;49.906;8.598;2023-02-10T09:17:03;33.77;;;21.97;;
6665;SDS011;3369;49.906;8.598;2023-02-10T09:19:32;36.97;;;23.00;;
6665;SDS011;3369;49.906;8.598;2023-02-10T09:22:02;36.63;;;23.07;;
6665;SDS011;3369;49.906;8.598;2023-02-10T09:24:28;35.77;;;22.90;;
6665;SDS011;3369;49.906;8.598;2023-02-10T09:26:54;38.23;;;24.87;;
6665;SDS011;3369;49.906;8.598;2023-02-10T09:29:19;36.57;;;22.97;;
6665;SDS011;3369;49.906;8.598;2023-02-10T09:31:45;37.63;;;23.03;;
6665;SDS011;3369;49.906;8.598;2023-02-10T09:34:10;39.43;;;23.73;;
6665;SDS011;3369;49.906;8.598;2023-02-10T09:36:36;38.53;;;23.77;;
6665;SDS011;3369;49.906;8.598;2023-02-10T09:39:02;39.70;;;22.63;;
6665;SDS011;3369;49.906;8.598;2023-02-10T09:44:15;37.97;;;22.90;;
6665;SDS011;3369;49.906;8.598;2023-02-10T09:52:39;42.17;;;24.40;;
6665;SDS011;3369;49.906;8.598;2023-02-10T09:55:33;38.57;;;23.83;;
6665;SDS011;3369;49.906;8.598;2023-02-10T10:00:42;41.53;;;25.03;;
6665;SDS011;3369;49.906;8.598;2023-02-10T10:03:13;37.83;;;23.73;;
6665;SDS011;3369;49.906;8.598;2023-02-10T10:10:56;37.43;;;23.10;;
6665;SDS011;3369;49.906;8.598;2023-02-10T10:13:27;37.17;;;23.13;;
6665;SDS011;3369;49.906;8.598;2023-02-10T10:18:54;37.03;;;24.27;;
6665;SDS011;3369;49.906;8.598;2023-02-10T10:21:35;37.73;;;22.90;;
6665;SDS011;3369;49.906;8.598;2023-02-10T10:27:19;36.77;;;24.20;;
6665;SDS011;3369;49.906;8.598;2023-02-10T10:30:18;38.10;;;23.07;;
6665;SDS011;3369;49.906;8.598;2023-02-10T10:32:54;36.43;;;22.27;;
6665;SDS011;3369;49.906;8.598;2023-02-10T10:35:33;34.20;;;22.33;;
6665;SDS011;3369;49.906;8.598;2023-02-10T10:38:23;30.20;;;21.17;;
6665;SDS011;3369;49.906;8.598;2023-02-10T10:40:54;32.57;;;22.03;;
6665;SDS011;3369;49.906;8.598;2023-02-10T10:43:29;35.97;;;23.57;;
6665;SDS011;3369;49.906;8.598;2023-02-10T10:46:02;37.07;;;20.93;;
6665;SDS011;3369;49.906;8.598;2023-02-10T10:48:36;34.43;;;22.63;;
6665;SDS011;3369;49.906;8.598;2023-02-10T10:51:05;38.03;;;24.00;;
6665;SDS011;3369;49.906;8.598;2023-02-10T10:53:44;33.63;;;22.37;;
6665;SDS011;3369;49.906;8.598;2023-02-10T10:59:03;34.80;;;22.40;;
6665;SDS011;3369;49.906;8.598;2023-02-10T11:01:37;32.13;;;21.47;;
6665;SDS011;3369;49.906;8.598;2023-02-10T11:04:15;33.73;;;23.13;;
6665;SDS011;3369;49.906;8.598;2023-02-10T11:06:50;35.13;;;23.07;;
6665;SDS011;3369;49.906;8.598;2023-02-10T11:12:15;34.13;;;22.10;;
6665;SDS011;3369;49.906;8.598;2023-02-10T11:14:42;38.93;;;22.63;;
6665;SDS011;3369;49.906;8.598;2023-02-10T11:17:20;41.60;;;23.17;;
6665;SDS011;3369;49.906;8.598;2023-02-10T11:19:58;36.50;;;21.80;;
6665;SDS011;3369;49.906;8.598;2023-02-10T11:22:26;33.47;;;22.80;;
6665;SDS011;3369;49.906;8.598;2023-02-10T11:24:53;31.77;;;21.03;;
6665;SDS011;3369;49.906;8.598;2023-02-10T11:27:21;36.37;;;22.30;;
6665;SDS011;3369;49.906;8.598;2023-02-10T11:29:57;31.77;;;21.27;;
6665;SDS011;3369;49.906;8.598;2023-02-10T11:32:28;34.40;;;21.63;;
6665;SDS011;3369;49.906;8.598;2023-02-10T11:34:58;33.40;;;21.77;;
6665;SDS011;3369;49.906;8.598;2023-02-10T11:37:29;34.27;;;22.03;;
6665;SDS011;3369;49.906;8.598;2023-02-10T11:39:57;31.73;;;21.20;;
6665;SDS011;3369;49.906;8.598;2023-02-10T11:42:26;36.83;;;21.23;;
6665;SDS011;3369;49.906;8.598;2023-02-10T11:44:58;31.60;;;20.97;;
6665;SDS011;3369;49.906;8.598;2023-02-10T11:47:29;35.93;;;21.97;;
6665;SDS011;3369;49.906;8.598;2023-02-10T11:49:56;30.90;;;21.27;;
6665;SDS011;3369;49.906;8.598;2023-02-10T11:52:23;32.30;;;21.07;;
6665;SDS011;3369;49.906;8.598;2023-02-10T11:54:54;34.17;;;20.40;;
6665;SDS011;3369;49.906;8.598;2023-02-10T12:05:44;34.77;;;20.40;;
6665;SDS011;3369;49.906;8.598;2023-02-10T12:19:47;31.60;;;20.83;;
6665;SDS011;3369;49.906;8.598;2023-02-10T12:25:29;32.70;;;19.90;;
6665;SDS011;3369;49.906;8.598;2023-02-10T12:28:08;34.13;;;20.10;;
6665;SDS011;3369;49.906;8.598;2023-02-10T12:30:59;30.30;;;20.43;;
6665;SDS011;3369;49.906;8.598;2023-02-10T12:44:22;30.20;;;20.70;;
6665;SDS011;3369;49.906;8.598;2023-02-10T12:54:36;32.23;;;21.80;;
6665;SDS011;3369;49.906;8.598;2023-02-10T13:05:25;29.53;;;21.43;;
6665;SDS011;3369;49.906;8.598;2023-02-10T13:07:56;36.47;;;22.40;;
6665;SDS011;3369;49.906;8.598;2023-02-10T13:10:35;31.47;;;20.20;;
6665;SDS011;3369;49.906;8.598;2023-02-10T13:13:14;34.00;;;19.40;;
6665;SDS011;3369;49.906;8.598;2023-02-10T13:15:53;28.70;;;19.33;;
6665;SDS011;3369;49.906;8.598;2023-02-10T13:18:31;30.87;;;20.07;;
6665;SDS011;3369;49.906;8.598;2023-02-10T13:21:20;34.00;;;21.93;;
6665;SDS011;3369;49.906;8.598;2023-02-10T13:24:13;33.07;;;20.73;;
6665;SDS011;3369;49.906;8.598;2023-02-10T13:32:05;33.70;;;21.23;;
6665;SDS011;3369;49.906;8.598;2023-02-10T13:34:44;33.13;;;21.90;;
6665;SDS011;3369;49.906;8.598;2023-02-10T13:40:03;35.80;;;21.47;;
6665;SDS011;3369;49.906;8.598;2023-02-10T13:42:39;34.17;;;21.80;;
6665;SDS011;3369;49.906;8.598;2023-02-10T13:45:20;36.20;;;21.80;;
6665;SDS011;3369;49.906;8.598;2023-02-10T13:47:49;32.63;;;20.67;;
6665;SDS011;3369;49.906;8.598;2023-02-10T13:50:22;35.83;;;21.73;;
6665;SDS011;3369;49.906;8.598;2023-02-10T13:53:01;35.90;;;22.47;;
6665;SDS011;3369;49.906;8.598;2023-02-10T13:58:46;34.40;;;22.07;;
6665;SDS011;3369;49.906;8.598;2023-02-10T14:00:54;31.00;;;21.67;;
6665;SDS011;3369;49.906;8.598;2023-02-10T14:03:22;32.90;;;21.73;;
6665;SDS011;3369;49.906;8.598;2023-02-10T14:05:51;34.27;;;21.97;;
6665;SDS011;3369;49.906;8.598;2023-02-10T14:08:33;34.23;;;21.53;;
6665;SDS011;3369;49.906;8.598;2023-02-10T14:13:39;35.57;;;22.27;;
6665;SDS011;3369;49.906;8.598;2023-02-10T14:18:56;33.20;;;20.97;;
6665;SDS011;3369;49.906;8.598;2023-02-10T14:21:36;35.63;;;22.57;;
6665;SDS011;3369;49.906;8.598;2023-02-10T14:24:11;31.17;;;20.17;;
6665;SDS011;3369;49.906;8.598;2023-02-10T14:26:41;33.33;;;21.80;;
6665;SDS011;3369;49.906;8.598;2023-02-10T14:29:10;36.70;;;22.23;;
6665;SDS011;3369;49.906;8.598;2023-02-10T14:31:42;30.93;;;20.73;;
6665;SDS011;3369;49.906;8.598;2023-02-10T14:55:56;34.10;;;19.93;;
6665;SDS011;3369;49.906;8.598;2023-02-10T14:58:23;34.53;;;20.37;;
6665;SDS011;3369;49.906;8.598;2023-02-10T15:01:08;36.03;;;20.23;;
6665;SDS011;3369;49.906;8.598;2023-02-10T15:03:46;31.43;;;20.57;;
6665;SDS011;3369;49.906;8.598;2023-02-10T15:06:17;32.97;;;20.97;;
6665;SDS011;3369;49.906;8.598;2023-02-10T15:08:54;32.63;;;20.50;;
6665;SDS011;3369;49.906;8.598;2023-02-10T15:11:32;31.87;;;20.50;;
6665;SDS011;3369;49.906;8.598;2023-02-10T15:17:02;34.07;;;21.83;;
6665;SDS011;3369;49.906;8.598;2023-02-10T15:19:31;28.43;;;19.37;;
6665;SDS011;3369;49.906;8.598;2023-02-10T15:21:56;29.60;;;19.10;;
6665;SDS011;3369;49.906;8.598;2023-02-10T15:24:32;28.13;;;18.60;;
6665;SDS011;3369;49.906;8.598;2023-02-10T15:27:12;32.80;;;20.10;;
6665;SDS011;3369;49.906;8.598;2023-02-10T15:29:43;27.97;;;19.70;;
6665;SDS011;3369;49.906;8.598;2023-02-10T15:32:16;30.47;;;20.30;;
6665;SDS011;3369;49.906;8.598;2023-02-10T15:34:43;32.87;;;21.63;;
6665;SDS011;3369;49.906;8.598;2023-02-10T15:37:18;37.50;;;23.30;;
6665;SDS011;3369;49.906;8.598;2023-02-10T15:39:56;37.03;;;23.37;;
6665;SDS011;3369;49.906;8.598;2023-02-10T15:42:28;36.87;;;24.07;;
6665;SDS011;3369;49.906;8.598;2023-02-10T15:45:11;34.63;;;22.67;;
6665;SDS011;3369;49.906;8.598;2023-02-10T15:47:46;32.30;;;22.80;;
6665;SDS011;3369;49.906;8.598;2023-02-10T15:50:25;31.47;;;21.03;;
6665;SDS011;3369;49.906;8.598;2023-02-10T15:52:52;32.40;;;23.00;;
6665;SDS011;3369;49.906;8.598;2023-02-10T15:55:19;34.60;;;22.70;;
6665;SDS011;3369;49.906;8.598;2023-02-10T15:57:59;33.30;;;23.50;;
6665;SDS011;3369;49.906;8.598;2023-02-10T16:00:32;32.50;;;21.97;;
6665;SDS011;3369;49.906;8.598;2023-02-10T16:02:59;34.30;;;24.13;;
6665;SDS011;3369;49.906;8.598;2023-02-10T16:05:26;34.87;;;23.43;;
6665;SDS011;3369;49.906;8.598;2023-02-10T16:07:53;34.07;;;22.43;;
6665;SDS011;3369;49.906;8.598;2023-02-10T16:10:24;40.93;;;24.40;;
6665;SDS011;3369;49.906;8.598;2023-02-10T16:12:51;36.03;;;24.27;;
6665;SDS011;3369;49.906;8.598;2023-02-10T16:15:18;35.20;;;23.47;;
6665;SDS011;3369;49.906;8.598;2023-02-10T16:17:46;32.47;;;23.83;;
6665;SDS011;3369;49.906;8.598;2023-02-10T16:20:16;35.57;;;24.77;;
6665;SDS011;3369;49.906;8.598;2023-02-10T16:22:50;33.63;;;22.53;;
6665;SDS011;3369;49.906;8.598;2023-02-10T16:25:16;35.93;;;24.10;;
6665;SDS011;3369;49.906;8.598;2023-02-10T16:27:44;39.37;;;25.47;;
6665;SDS011;3369;49.906;8.598;2023-02-10T16:30:13;39.90;;;27.60;;
6665;SDS011;3369;49.906;8.598;2023-02-10T16:32:41;38.73;;;26.60;;
6665;SDS011;3369;49.906;8.598;2023-02-10T16:35:06;40.40;;;25.17;;
6665;SDS011;3369;49.906;8.598;2023-02-10T16:37:32;40.67;;;26.67;;
6665;SDS011;3369;49.906;8.598;2023-02-10T16:39:58;38.20;;;25.03;;
6665;SDS011;3369;49.906;8.598;2023-02-10T16:42:24;35.30;;;23.53;;
6665;SDS011;3369;49.906;8.598;2023-02-10T16:44:49;34.07;;;23.60;;
6665;SDS011;3369;49.906;8.598;2023-02-10T16:47:16;36.30;;;23.93;;
6665;SDS011;3369;49.906;8.598;2023-02-10T16:49:44;38.47;;;24.73;;
6665;SDS011;3369;49.906;8.598;2023-02-10T16:52:09;38.60;;;26.33;;
6665;SDS011;3369;49.906;8.598;2023-02-10T16:54:35;36.03;;;23.87;;
6665;SDS011;3369;49.906;8.598;2023-02-10T16:57:01;38.13;;;25.87;;
6665;SDS011;3369;49.906;8.598;2023-02-10T16:59:26;44.00;;;27.00;;
6665;SDS011;3369;49.906;8.598;2023-02-10T17:01:52;40.43;;;25.70;;
6665;SDS011;3369;49.906;8.598;2023-02-10T17:04:18;44.63;;;26.00;;
6665;SDS011;3369;49.906;8.598;2023-02-10T17:06:45;38.60;;;26.30;;
6665;SDS011;3369;49.906;8.598;2023-02-10T17:09:16;40.40;;;26.10;;
6665;SDS011;3369;49.906;8.598;2023-02-10T17:11:44;40.03;;;25.20;;
6665;SDS011;3369;49.906;8.598;2023-02-10T17:14:10;39.07;;;25.37;;
6665;SDS011;3369;49.906;8.598;2023-02-10T17:16:36;36.90;;;26.20;;
6665;SDS011;3369;49.906;8.598;2023-02-10T17:19:05;44.23;;;27.00;;
6665;SDS011;3369;49.906;8.598;2023-02-10T17:21:35;41.30;;;27.70;;
6665;SDS011;3369;49.906;8.598;2023-02-10T17:24:01;41.53;;;27.07;;
6665;SDS011;3369;49.906;8.598;2023-02-10T17:26:27;36.77;;;24.07;;
6665;SDS011;3369;49.906;8.598;2023-02-10T17:28:52;35.30;;;25.03;;
6665;SDS011;3369;49.906;8.598;2023-02-10T17:31:19;34.73;;;24.13;;
6665;SDS011;3369;49.906;8.598;2023-02-10T17:33:46;37.23;;;24.00;;